sensor_id;sensor_type;location;lat;lon;timestamp;P1;durP1;ratioP1;P2;durP2;ratioP2
23866;SDS011;12114;53.404;-1.502;2023-04-01T00:01:49;6.50;;;3.38;;
23866;SDS011;12114;53.404;-1.502;2023-04-01T00:04:34;7.60;;;3.78;;
23866;SDS011;12114;53.404;-1.502;2023-04-01T00:07:18;9.05;;;3.53;;
23866;SDS011;12114;53.404;-1.502;2023-04-01T00:10:03;5.03;;;3.00;;
23866;SDS011;12114;53.404;-1.502;2023-04-01T00:12:47;8.65;;;4.00;;
23866;SDS011;12114;53.404;-1.502;2023-04-01T00:15:31;5.93;;;3.13;;
23866;SDS011;12114;53.404;-1.502;2023-04-01T00:18:15;5.85;;;3.25;;
23866;SDS011;12114;53.404;-1.502;2023-04-01T00:20:59;6.45;;;3.40;;
23866;SDS011;12114;53.404;-1.502;2023-04-01T00:23:43;5.95;;;3.28;;
23866;SDS011;12114;53.404;-1.502;2023-04-01T00:26:27;5.72;;;3.00;;
23866;SDS011;12114;53.404;-1.502;2023-04-01T00:29:11;7.78;;;2.97;;
23866;SDS011;12114;53.404;-1.502;2023-04-01T00:31:58;6.07;;;3.30;;
23866;SDS011;12114;53.404;-1.502;2023-04-01T00:34:43;4.70;;;2.50;;
23866;SDS011;12114;53.404;-1.502;2023-04-01T00:37:28;5.17;;;2.77;;
23866;SDS011;12114;53.404;-1.502;2023-04-01T00:43:25;5.78;;;2.90;;
23866;SDS011;12114;53.404;-1.502;2023-04-01T00:46:09;6.30;;;3.00;;
23866;SDS011;12114;53.404;-1.502;2023-04-01T00:48:53;6.72;;;3.10;;
23866;SDS011;12114;53.404;-1.502;2023-04-01T00:51:38;9.05;;;3.70;;
23866;SDS011;12114;53.404;-1.502;2023-04-01T00:54:22;6.57;;;3.58;;
23866;SDS011;12114;53.404;-1.502;2023-04-01T00:57:09;5.63;;;3.42;;
23866;SDS011;12114;53.404;-1.502;2023-04-01T00:59:55;5.38;;;3.03;;
23866;SDS011;12114;53.404;-1.502;2023-04-01T01:02:41;5.95;;;3.13;;
23866;SDS011;12114;53.404;-1.502;2023-04-01T01:05:37;7.00;;;3.20;;
23866;SDS011;12114;53.404;-1.502;2023-04-01T01:08:30;6.90;;;3.25;;
23866;SDS011;12114;53.404;-1.502;2023-04-01T01:11:16;6.45;;;3.30;;
23866;SDS011;12114;53.404;-1.502;2023-04-01T01:14:22;6.45;;;3.33;;
23866;SDS011;12114;53.404;-1.502;2023-04-01T01:17:13;5.32;;;3.55;;
23866;SDS011;12114;53.404;-1.502;2023-04-01T01:20:14;6.28;;;3.30;;
23866;SDS011;12114;53.404;-1.502;2023-04-01T01:32:04;7.00;;;3.55;;
23866;SDS011;12114;53.404;-1.502;2023-04-01T01:37:56;4.97;;;2.65;;
23866;SDS011;12114;53.404;-1.502;2023-04-01T01:40:41;6.10;;;2.83;;
23866;SDS011;12114;53.404;-1.502;2023-04-01T01:43:37;6.57;;;3.03;;
23866;SDS011;12114;53.404;-1.502;2023-04-01T01:49:06;3.67;;;2.80;;
23866;SDS011;12114;53.404;-1.502;2023-04-01T01:51:50;3.95;;;2.55;;
23866;SDS011;12114;53.404;-1.502;2023-04-01T01:54:34;5.97;;;2.85;;
23866;SDS011;12114;53.404;-1.502;2023-04-01T01:57:19;5.03;;;2.92;;
23866;SDS011;12114;53.404;-1.502;2023-04-01T02:00:08;5.20;;;2.50;;
23866;SDS011;12114;53.404;-1.502;2023-04-01T02:03:01;7.40;;;2.50;;
23866;SDS011;12114;53.404;-1.502;2023-04-01T02:05:47;5.90;;;2.63;;
23866;SDS011;12114;53.404;-1.502;2023-04-01T02:11:19;4.32;;;2.13;;
23866;SDS011;12114;53.404;-1.502;2023-04-01T02:14:07;5.15;;;2.53;;
23866;SDS011;12114;53.404;-1.502;2023-04-01T02:16:57;6.13;;;2.78;;
23866;SDS011;12114;53.404;-1.502;2023-04-01T02:19:48;7.07;;;2.58;;
23866;SDS011;12114;53.404;-1.502;2023-04-01T02:22:34;7.78;;;2.70;;
23866;SDS011;12114;53.404;-1.502;2023-04-01T02:25:26;5.05;;;2.58;;
23866;SDS011;12114;53.404;-1.502;2023-04-01T02:28:11;5.82;;;3.08;;
23866;SDS011;12114;53.404;-1.502;2023-04-01T02:30:56;6.57;;;2.70;;
23866;SDS011;12114;53.404;-1.502;2023-04-01T02:33:41;5.87;;;1.60;;
23866;SDS011;12114;53.404;-1.502;2023-04-01T02:36:25;8.43;;;2.63;;
23866;SDS011;12114;53.404;-1.502;2023-04-01T02:39:09;5.75;;;2.28;;
23866;SDS011;12114;53.404;-1.502;2023-04-01T02:41:53;5.97;;;2.20;;
23866;SDS011;12114;53.404;-1.502;2023-04-01T02:44:37;7.35;;;2.65;;
23866;SDS011;12114;53.404;-1.502;2023-04-01T02:47:21;7.00;;;2.15;;
23866;SDS011;12114;53.404;-1.502;2023-04-01T02:50:05;4.72;;;1.73;;
23866;SDS011;12114;53.404;-1.502;2023-04-01T02:52:49;7.30;;;1.70;;
23866;SDS011;12114;53.404;-1.502;2023-04-01T02:55:33;6.53;;;1.60;;
23866;SDS011;12114;53.404;-1.502;2023-04-01T02:58:18;6.45;;;1.70;;
23866;SDS011;12114;53.404;-1.502;2023-04-01T03:01:02;5.05;;;1.75;;
23866;SDS011;12114;53.404;-1.502;2023-04-01T03:03:46;4.45;;;1.98;;
23866;SDS011;12114;53.404;-1.502;2023-04-01T03:06:30;4.50;;;1.67;;
23866;SDS011;12114;53.404;-1.502;2023-04-01T03:09:14;6.65;;;2.20;;
23866;SDS011;12114;53.404;-1.502;2023-04-01T03:11:59;4.28;;;1.70;;
23866;SDS011;12114;53.404;-1.502;2023-04-01T03:14:42;6.55;;;2.65;;
23866;SDS011;12114;53.404;-1.502;2023-04-01T03:17:26;6.18;;;2.70;;
23866;SDS011;12114;53.404;-1.502;2023-04-01T03:20:11;7.95;;;3.42;;
23866;SDS011;12114;53.404;-1.502;2023-04-01T03:22:54;8.75;;;3.72;;
23866;SDS011;12114;53.404;-1.502;2023-04-01T03:25:38;8.25;;;2.85;;
23866;SDS011;12114;53.404;-1.502;2023-04-01T03:28:22;5.57;;;2.05;;
23866;SDS011;12114;53.404;-1.502;2023-04-01T03:31:07;5.32;;;1.67;;
23866;SDS011;12114;53.404;-1.502;2023-04-01T03:33:50;5.00;;;1.77;;
23866;SDS011;12114;53.404;-1.502;2023-04-01T03:36:34;5.28;;;1.98;;
23866;SDS011;12114;53.404;-1.502;2023-04-01T03:39:18;6.40;;;2.00;;
23866;SDS011;12114;53.404;-1.502;2023-04-01T03:42:02;5.57;;;1.58;;
23866;SDS011;12114;53.404;-1.502;2023-04-01T03:44:46;4.50;;;1.80;;
23866;SDS011;12114;53.404;-1.502;2023-04-01T03:47:30;5.47;;;1.80;;
23866;SDS011;12114;53.404;-1.502;2023-04-01T03:50:14;8.13;;;1.90;;
23866;SDS011;12114;53.404;-1.502;2023-04-01T03:52:58;4.03;;;1.60;;
23866;SDS011;12114;53.404;-1.502;2023-04-01T03:55:42;5.90;;;1.80;;
23866;SDS011;12114;53.404;-1.502;2023-04-01T03:58:26;4.95;;;1.88;;
23866;SDS011;12114;53.404;-1.502;2023-04-01T04:01:20;4.07;;;1.45;;
23866;SDS011;12114;53.404;-1.502;2023-04-01T04:04:04;4.82;;;1.50;;
23866;SDS011;12114;53.404;-1.502;2023-04-01T04:06:49;4.22;;;1.15;;
23866;SDS011;12114;53.404;-1.502;2023-04-01T04:09:34;3.25;;;1.27;;
23866;SDS011;12114;53.404;-1.502;2023-04-01T04:12:19;5.78;;;1.48;;
23866;SDS011;12114;53.404;-1.502;2023-04-01T04:15:03;5.30;;;1.50;;
23866;SDS011;12114;53.404;-1.502;2023-04-01T04:17:47;5.50;;;1.52;;
23866;SDS011;12114;53.404;-1.502;2023-04-01T04:20:31;4.93;;;1.50;;
23866;SDS011;12114;53.404;-1.502;2023-04-01T04:23:14;4.75;;;1.40;;
23866;SDS011;12114;53.404;-1.502;2023-04-01T04:26:04;2.97;;;1.35;;
23866;SDS011;12114;53.404;-1.502;2023-04-01T04:28:48;4.40;;;1.50;;
23866;SDS011;12114;53.404;-1.502;2023-04-01T04:31:32;5.43;;;1.45;;
23866;SDS011;12114;53.404;-1.502;2023-04-01T04:34:16;3.58;;;1.50;;
23866;SDS011;12114;53.404;-1.502;2023-04-01T04:37:02;4.03;;;1.38;;
23866;SDS011;12114;53.404;-1.502;2023-04-01T04:39:46;5.13;;;1.50;;
23866;SDS011;12114;53.404;-1.502;2023-04-01T04:42:30;9.30;;;1.90;;
23866;SDS011;12114;53.404;-1.502;2023-04-01T04:45:14;6.78;;;2.15;;
23866;SDS011;12114;53.404;-1.502;2023-04-01T04:47:58;4.28;;;1.30;;
23866;SDS011;12114;53.404;-1.502;2023-04-01T04:50:42;6.68;;;1.80;;
23866;SDS011;12114;53.404;-1.502;2023-04-01T04:53:26;4.55;;;1.42;;
23866;SDS011;12114;53.404;-1.502;2023-04-01T04:56:10;3.38;;;1.30;;
23866;SDS011;12114;53.404;-1.502;2023-04-01T04:58:54;5.55;;;1.98;;
23866;SDS011;12114;53.404;-1.502;2023-04-01T05:01:39;5.78;;;2.33;;
23866;SDS011;12114;53.404;-1.502;2023-04-01T05:04:22;10.48;;;2.95;;
23866;SDS011;12114;53.404;-1.502;2023-04-01T05:07:06;7.75;;;2.67;;
23866;SDS011;12114;53.404;-1.502;2023-04-01T05:09:50;6.72;;;2.47;;
23866;SDS011;12114;53.404;-1.502;2023-04-01T05:12:34;6.55;;;2.53;;
23866;SDS011;12114;53.404;-1.502;2023-04-01T05:15:22;5.78;;;2.35;;
23866;SDS011;12114;53.404;-1.502;2023-04-01T05:18:06;7.20;;;2.80;;
23866;SDS011;12114;53.404;-1.502;2023-04-01T05:20:51;4.90;;;2.78;;
23866;SDS011;12114;53.404;-1.502;2023-04-01T05:23:35;6.20;;;2.57;;
23866;SDS011;12114;53.404;-1.502;2023-04-01T05:26:19;8.10;;;3.13;;
23866;SDS011;12114;53.404;-1.502;2023-04-01T05:29:04;11.52;;;3.15;;
23866;SDS011;12114;53.404;-1.502;2023-04-01T05:31:48;10.27;;;3.17;;
23866;SDS011;12114;53.404;-1.502;2023-04-01T05:34:31;7.25;;;3.22;;
23866;SDS011;12114;53.404;-1.502;2023-04-01T05:37:15;7.00;;;3.17;;
23866;SDS011;12114;53.404;-1.502;2023-04-01T05:39:59;8.30;;;3.97;;
23866;SDS011;12114;53.404;-1.502;2023-04-01T05:42:43;11.98;;;3.83;;
23866;SDS011;12114;53.404;-1.502;2023-04-01T05:45:27;13.23;;;4.30;;
23866;SDS011;12114;53.404;-1.502;2023-04-01T05:48:11;10.30;;;3.72;;
23866;SDS011;12114;53.404;-1.502;2023-04-01T05:50:55;12.18;;;3.58;;
23866;SDS011;12114;53.404;-1.502;2023-04-01T05:53:39;7.90;;;2.70;;
23866;SDS011;12114;53.404;-1.502;2023-04-01T05:56:23;8.43;;;2.38;;
23866;SDS011;12114;53.404;-1.502;2023-04-01T05:59:09;7.07;;;2.55;;
23866;SDS011;12114;53.404;-1.502;2023-04-01T06:01:53;6.72;;;2.10;;
23866;SDS011;12114;53.404;-1.502;2023-04-01T06:04:38;3.78;;;1.60;;
23866;SDS011;12114;53.404;-1.502;2023-04-01T06:07:22;6.67;;;1.97;;
23866;SDS011;12114;53.404;-1.502;2023-04-01T06:10:14;5.47;;;2.00;;
23866;SDS011;12114;53.404;-1.502;2023-04-01T06:16:37;5.47;;;1.67;;
23866;SDS011;12114;53.404;-1.502;2023-04-01T06:31:50;7.38;;;1.58;;
23866;SDS011;12114;53.404;-1.502;2023-04-01T06:38:16;7.60;;;1.58;;
23866;SDS011;12114;53.404;-1.502;2023-04-01T06:40:50;7.05;;;2.05;;
23866;SDS011;12114;53.404;-1.502;2023-04-01T06:43:45;4.18;;;1.67;;
23866;SDS011;12114;53.404;-1.502;2023-04-01T06:54:58;7.22;;;2.78;;
23866;SDS011;12114;53.404;-1.502;2023-04-01T06:57:47;11.07;;;3.60;;
23866;SDS011;12114;53.404;-1.502;2023-04-01T07:00:35;9.75;;;3.33;;
23866;SDS011;12114;53.404;-1.502;2023-04-01T07:06:34;5.93;;;2.80;;
23866;SDS011;12114;53.404;-1.502;2023-04-01T07:09:20;9.95;;;2.42;;
23866;SDS011;12114;53.404;-1.502;2023-04-01T07:12:07;3.15;;;2.20;;
23866;SDS011;12114;53.404;-1.502;2023-04-01T07:14:54;4.07;;;1.90;;
23866;SDS011;12114;53.404;-1.502;2023-04-01T07:17:39;6.43;;;2.13;;
23866;SDS011;12114;53.404;-1.502;2023-04-01T07:20:27;7.40;;;2.05;;
23866;SDS011;12114;53.404;-1.502;2023-04-01T07:23:21;4.50;;;1.75;;
23866;SDS011;12114;53.404;-1.502;2023-04-01T07:26:11;5.88;;;1.90;;
23866;SDS011;12114;53.404;-1.502;2023-04-01T07:28:58;4.75;;;1.73;;
23866;SDS011;12114;53.404;-1.502;2023-04-01T07:35:02;4.13;;;1.60;;
23866;SDS011;12114;53.404;-1.502;2023-04-01T07:43:47;5.32;;;1.55;;
23866;SDS011;12114;53.404;-1.502;2023-04-01T07:50:06;5.88;;;2.20;;
23866;SDS011;12114;53.404;-1.502;2023-04-01T07:59:08;5.65;;;1.85;;
23866;SDS011;12114;53.404;-1.502;2023-04-01T08:21:58;7.82;;;3.03;;
23866;SDS011;12114;53.404;-1.502;2023-04-01T08:24:47;4.60;;;2.70;;
23866;SDS011;12114;53.404;-1.502;2023-04-01T08:33:39;4.82;;;1.90;;
23866;SDS011;12114;53.404;-1.502;2023-04-01T08:36:27;4.93;;;1.98;;
23866;SDS011;12114;53.404;-1.502;2023-04-01T08:39:13;3.67;;;2.13;;
23866;SDS011;12114;53.404;-1.502;2023-04-01T08:56:14;3.35;;;2.00;;
23866;SDS011;12114;53.404;-1.502;2023-04-01T09:07:46;4.47;;;1.83;;
23866;SDS011;12114;53.404;-1.502;2023-04-01T09:19:28;4.32;;;1.17;;
23866;SDS011;12114;53.404;-1.502;2023-04-01T09:34:30;2.70;;;1.20;;
23866;SDS011;12114;53.404;-1.502;2023-04-01T09:40:30;4.15;;;1.38;;
23866;SDS011;12114;53.404;-1.502;2023-04-01T09:49:26;3.72;;;0.90;;
23866;SDS011;12114;53.404;-1.502;2023-04-01T09:52:24;2.20;;;1.00;;
23866;SDS011;12114;53.404;-1.502;2023-04-01T10:10:23;1.55;;;0.50;;
23866;SDS011;12114;53.404;-1.502;2023-04-01T10:22:17;2.38;;;0.93;;
23866;SDS011;12114;53.404;-1.502;2023-04-01T10:28:05;4.63;;;1.83;;
23866;SDS011;12114;53.404;-1.502;2023-04-01T10:42:05;6.57;;;0.90;;
23866;SDS011;12114;53.404;-1.502;2023-04-01T10:57:00;4.90;;;1.25;;
23866;SDS011;12114;53.404;-1.502;2023-04-01T11:06:19;1.88;;;1.15;;
23866;SDS011;12114;53.404;-1.502;2023-04-01T11:43:09;1.33;;;0.68;;
23866;SDS011;12114;53.404;-1.502;2023-04-01T11:46:00;7.05;;;1.98;;
23866;SDS011;12114;53.404;-1.502;2023-04-01T11:49:00;2.70;;;1.10;;
23866;SDS011;12114;53.404;-1.502;2023-04-01T11:57:43;2.92;;;1.25;;
23866;SDS011;12114;53.404;-1.502;2023-04-01T12:00:43;3.10;;;1.27;;
23866;SDS011;12114;53.404;-1.502;2023-04-01T12:06:34;2.63;;;1.20;;
23866;SDS011;12114;53.404;-1.502;2023-04-01T12:09:29;1.85;;;1.02;;
23866;SDS011;12114;53.404;-1.502;2023-04-01T12:12:32;3.33;;;1.00;;
23866;SDS011;12114;53.404;-1.502;2023-04-01T12:15:32;2.45;;;0.70;;
23866;SDS011;12114;53.404;-1.502;2023-04-01T12:29:51;2.83;;;0.80;;
23866;SDS011;12114;53.404;-1.502;2023-04-01T12:53:17;2.20;;;0.90;;
23866;SDS011;12114;53.404;-1.502;2023-04-01T13:16:24;1.73;;;0.70;;
23866;SDS011;12114;53.404;-1.502;2023-04-01T13:27:44;2.17;;;0.90;;
23866;SDS011;12114;53.404;-1.502;2023-04-01T13:30:34;1.27;;;0.70;;
23866;SDS011;12114;53.404;-1.502;2023-04-01T13:33:23;3.35;;;0.80;;
23866;SDS011;12114;53.404;-1.502;2023-04-01T13:44:38;2.88;;;0.75;;
23866;SDS011;12114;53.404;-1.502;2023-04-01T14:07:32;3.78;;;1.10;;
23866;SDS011;12114;53.404;-1.502;2023-04-01T14:13:24;2.78;;;0.80;;
23866;SDS011;12114;53.404;-1.502;2023-04-01T14:19:11;3.25;;;0.93;;
23866;SDS011;12114;53.404;-1.502;2023-04-01T14:22:11;2.65;;;1.27;;
23866;SDS011;12114;53.404;-1.502;2023-04-01T14:25:20;3.78;;;1.38;;
23866;SDS011;12114;53.404;-1.502;2023-04-01T14:48:36;2.20;;;1.33;;
23866;SDS011;12114;53.404;-1.502;2023-04-01T14:51:18;2.63;;;1.20;;
23866;SDS011;12114;53.404;-1.502;2023-04-01T14:54:08;3.25;;;1.50;;
23866;SDS011;12114;53.404;-1.502;2023-04-01T15:00:15;6.13;;;2.30;;
23866;SDS011;12114;53.404;-1.502;2023-04-01T15:12:26;5.55;;;1.20;;
23866;SDS011;12114;53.404;-1.502;2023-04-01T15:18:18;3.58;;;1.80;;
23866;SDS011;12114;53.404;-1.502;2023-04-01T15:35:25;5.70;;;1.20;;
23866;SDS011;12114;53.404;-1.502;2023-04-01T15:53:44;5.25;;;1.80;;
23866;SDS011;12114;53.404;-1.502;2023-04-01T15:56:11;7.38;;;2.58;;
23866;SDS011;12114;53.404;-1.502;2023-04-01T16:15:52;8.95;;;2.80;;
23866;SDS011;12114;53.404;-1.502;2023-04-01T16:24:43;9.55;;;3.17;;
23866;SDS011;12114;53.404;-1.502;2023-04-01T16:27:29;10.45;;;3.75;;
23866;SDS011;12114;53.404;-1.502;2023-04-01T16:33:09;7.47;;;2.83;;
23866;SDS011;12114;53.404;-1.502;2023-04-01T16:44:30;11.90;;;3.17;;
23866;SDS011;12114;53.404;-1.502;2023-04-01T16:47:16;8.05;;;2.70;;
23866;SDS011;12114;53.404;-1.502;2023-04-01T16:55:46;13.17;;;3.23;;
23866;SDS011;12114;53.404;-1.502;2023-04-01T17:01:20;16.65;;;3.70;;
23866;SDS011;12114;53.404;-1.502;2023-04-01T17:04:07;12.80;;;3.92;;
23866;SDS011;12114;53.404;-1.502;2023-04-01T17:19:21;10.38;;;4.13;;
23866;SDS011;12114;53.404;-1.502;2023-04-01T17:25:07;8.25;;;3.72;;
23866;SDS011;12114;53.404;-1.502;2023-04-01T17:27:59;10.82;;;4.22;;
23866;SDS011;12114;53.404;-1.502;2023-04-01T17:48:38;9.05;;;3.75;;
23866;SDS011;12114;53.404;-1.502;2023-04-01T18:05:59;7.00;;;3.88;;
23866;SDS011;12114;53.404;-1.502;2023-04-01T18:11:49;6.75;;;2.60;;
23866;SDS011;12114;53.404;-1.502;2023-04-01T18:20:18;9.82;;;3.30;;
23866;SDS011;12114;53.404;-1.502;2023-04-01T18:26:05;7.07;;;3.10;;
23866;SDS011;12114;53.404;-1.502;2023-04-01T18:31:55;7.68;;;3.00;;
23866;SDS011;12114;53.404;-1.502;2023-04-01T18:34:59;6.43;;;2.85;;
23866;SDS011;12114;53.404;-1.502;2023-04-01T18:37:45;9.38;;;3.05;;
23866;SDS011;12114;53.404;-1.502;2023-04-01T18:41:14;4.32;;;3.17;;
23866;SDS011;12114;53.404;-1.502;2023-04-01T18:43:57;6.60;;;3.53;;
23866;SDS011;12114;53.404;-1.502;2023-04-01T18:58:06;6.75;;;3.28;;
23866;SDS011;12114;53.404;-1.502;2023-04-01T19:06:31;7.68;;;3.05;;
23866;SDS011;12114;53.404;-1.502;2023-04-01T19:09:43;8.30;;;3.22;;
23866;SDS011;12114;53.404;-1.502;2023-04-01T19:12:30;6.45;;;2.63;;
23866;SDS011;12114;53.404;-1.502;2023-04-01T19:27:03;7.88;;;3.67;;
23866;SDS011;12114;53.404;-1.502;2023-04-01T19:36:11;6.28;;;3.53;;
23866;SDS011;12114;53.404;-1.502;2023-04-01T19:48:26;4.35;;;3.17;;
23866;SDS011;12114;53.404;-1.502;2023-04-01T20:00:14;6.60;;;4.00;;
23866;SDS011;12114;53.404;-1.502;2023-04-01T20:11:43;8.52;;;3.15;;
23866;SDS011;12114;53.404;-1.502;2023-04-01T20:23:04;7.80;;;2.88;;
23866;SDS011;12114;53.404;-1.502;2023-04-01T20:25:50;9.65;;;3.22;;
23866;SDS011;12114;53.404;-1.502;2023-04-01T20:29:02;6.35;;;3.28;;
23866;SDS011;12114;53.404;-1.502;2023-04-01T20:31:41;9.40;;;4.20;;
23866;SDS011;12114;53.404;-1.502;2023-04-01T20:37:21;7.47;;;4.07;;
23866;SDS011;12114;53.404;-1.502;2023-04-01T20:40:19;9.02;;;3.38;;
23866;SDS011;12114;53.404;-1.502;2023-04-01T20:43:14;9.43;;;3.53;;
23866;SDS011;12114;53.404;-1.502;2023-04-01T20:51:37;10.02;;;3.60;;
23866;SDS011;12114;53.404;-1.502;2023-04-01T20:57:14;7.97;;;3.10;;
23866;SDS011;12114;53.404;-1.502;2023-04-01T21:11:44;8.27;;;3.45;;
23866;SDS011;12114;53.404;-1.502;2023-04-01T21:14:34;9.75;;;4.00;;
23866;SDS011;12114;53.404;-1.502;2023-04-01T21:17:33;4.93;;;3.38;;
23866;SDS011;12114;53.404;-1.502;2023-04-01T21:23:14;7.35;;;3.42;;
23866;SDS011;12114;53.404;-1.502;2023-04-01T21:37:22;9.45;;;3.30;;
23866;SDS011;12114;53.404;-1.502;2023-04-01T21:42:58;6.90;;;3.80;;
23866;SDS011;12114;53.404;-1.502;2023-04-01T21:45:58;6.40;;;3.70;;
23866;SDS011;12114;53.404;-1.502;2023-04-01T22:04:14;12.30;;;4.18;;
23866;SDS011;12114;53.404;-1.502;2023-04-01T22:09:32;8.05;;;3.92;;
23866;SDS011;12114;53.404;-1.502;2023-04-01T22:15:15;11.75;;;4.60;;
23866;SDS011;12114;53.404;-1.502;2023-04-01T22:20:59;12.00;;;4.90;;
23866;SDS011;12114;53.404;-1.502;2023-04-01T22:32:31;14.52;;;6.00;;
23866;SDS011;12114;53.404;-1.502;2023-04-01T22:41:18;14.25;;;5.70;;
23866;SDS011;12114;53.404;-1.502;2023-04-01T22:44:05;13.02;;;5.35;;
23866;SDS011;12114;53.404;-1.502;2023-04-01T22:47:04;12.73;;;5.70;;
23866;SDS011;12114;53.404;-1.502;2023-04-01T22:49:59;14.40;;;5.60;;
23866;SDS011;12114;53.404;-1.502;2023-04-01T22:52:47;12.07;;;5.28;;
23866;SDS011;12114;53.404;-1.502;2023-04-01T22:58:18;10.02;;;5.63;;
23866;SDS011;12114;53.404;-1.502;2023-04-01T23:01:06;11.23;;;5.93;;
23866;SDS011;12114;53.404;-1.502;2023-04-01T23:03:51;10.68;;;5.72;;
23866;SDS011;12114;53.404;-1.502;2023-04-01T23:06:38;11.00;;;5.70;;
23866;SDS011;12114;53.404;-1.502;2023-04-01T23:09:33;13.98;;;6.47;;
23866;SDS011;12114;53.404;-1.502;2023-04-01T23:12:19;17.67;;;6.65;;
23866;SDS011;12114;53.404;-1.502;2023-04-01T23:15:04;14.70;;;6.53;;
23866;SDS011;12114;53.404;-1.502;2023-04-01T23:29:34;9.85;;;5.68;;
23866;SDS011;12114;53.404;-1.502;2023-04-01T23:32:19;9.90;;;5.25;;
23866;SDS011;12114;53.404;-1.502;2023-04-01T23:35:11;10.35;;;5.13;;
23866;SDS011;12114;53.404;-1.502;2023-04-01T23:37:59;12.10;;;5.03;;
23866;SDS011;12114;53.404;-1.502;2023-04-01T23:40:44;9.65;;;5.30;;
23866;SDS011;12114;53.404;-1.502;2023-04-01T23:43:30;10.77;;;5.50;;
23866;SDS011;12114;53.404;-1.502;2023-04-01T23:46:15;8.80;;;5.40;;
23866;SDS011;12114;53.404;-1.502;2023-04-01T23:48:58;12.00;;;5.60;;
23866;SDS011;12114;53.404;-1.502;2023-04-01T23:51:55;13.00;;;5.65;;
23866;SDS011;12114;53.404;-1.502;2023-04-01T23:54:44;10.03;;;5.43;;
23866;SDS011;12114;53.404;-1.502;2023-04-01T23:57:31;12.05;;;5.70;;
